Time;durP1;ratioP1;P1;durP2;ratioP2;P2;SDS_P1;SDS_P2;PMS_P1;PMS_P2;Temp;Humidity;BMP_temperature;BMP_pressure;BME280_temperature;BME280_humidity;BME280_pressure;Samples;Min_cycle;Max_cycle;Signal;HPM_P1;HPM_P2
2021/11/24 00:01:51;;;;;;;25.75;21.17;;;;;;;7.03;100.00;102725.47;5247860;28;20052;-71
2021/11/24 00:04:23;;;;;;;23.98;21.48;;;;;;;6.92;100.00;102715.47;5247807;28;20039;-70
2021/11/24 00:06:54;;;;;;;27.67;22.70;;;;;;;6.92;100.00;102725.06;5248703;28;20033;-71
2021/11/24 00:09:25;;;;;;;29.05;22.35;;;;;;;6.82;100.00;102714.16;5247227;28;20025;-71
2021/11/24 00:11:57;;;;;;;22.95;20.50;;;;;;;6.86;100.00;102725.28;5247944;28;20025;-71
2021/11/24 00:14:28;;;;;;;24.42;21.60;;;;;;;6.76;100.00;102719.59;5247870;28;20029;-71
2021/11/24 00:16:59;;;;;;;21.88;19.58;;;;;;;6.70;100.00;102712.84;5246602;28;20479;-71
2021/11/24 00:19:31;;;;;;;22.30;18.95;;;;;;;6.66;100.00;102715.66;5247422;28;20060;-71
2021/11/24 00:22:02;;;;;;;20.52;17.88;;;;;;;6.64;100.00;102713.13;5247460;28;20025;-71
2021/11/24 00:24:34;;;;;;;21.50;18.48;;;;;;;6.56;100.00;102718.63;5248456;28;20520;-70
2021/11/24 00:27:05;;;;;;;23.15;18.60;;;;;;;6.54;100.00;102715.22;5247691;28;20118;-71
2021/11/24 00:29:37;;;;;;;23.73;20.02;;;;;;;6.56;100.00;102716.00;5246800;28;20033;-71
2021/11/24 00:32:08;;;;;;;23.83;19.90;;;;;;;6.54;100.00;102704.78;5245580;28;20082;-71
2021/11/24 00:34:39;;;;;;;25.10;20.40;;;;;;;6.53;100.00;102710.91;5246150;28;20051;-70
2021/11/24 00:37:11;;;;;;;22.70;20.20;;;;;;;6.56;100.00;102718.63;5248143;28;20104;-70
2021/11/24 00:39:42;;;;;;;26.25;20.98;;;;;;;6.56;100.00;102715.16;5248059;28;20052;-71
2021/11/24 00:42:14;;;;;;;26.23;19.92;;;;;;;6.51;100.00;102707.50;5247894;28;20023;-71
2021/11/24 00:44:45;;;;;;;24.30;19.95;;;;;;;6.61;100.00;102708.00;5246964;28;20024;-71
2021/11/24 00:47:16;;;;;;;20.92;18.55;;;;;;;6.65;100.00;102703.53;5245722;28;20028;-71
2021/11/24 00:49:48;;;;;;;24.85;21.30;;;;;;;6.67;100.00;102705.19;5248236;28;20033;-71
2021/11/24 00:52:19;;;;;;;24.38;21.05;;;;;;;6.70;100.00;102697.22;5246347;28;20156;-70
2021/11/24 00:54:50;;;;;;;25.40;19.63;;;;;;;6.70;100.00;102699.00;5245808;28;20037;-70
2021/11/24 00:57:22;;;;;;;21.00;18.80;;;;;;;6.71;100.00;102704.16;5243748;28;20090;-71
2021/11/24 00:59:53;;;;;;;23.42;20.00;;;;;;;6.72;100.00;102707.59;5243611;28;20025;-71
2021/11/24 01:02:24;;;;;;;24.00;20.60;;;;;;;6.79;100.00;102706.47;5245474;28;20055;-71
2021/11/24 01:04:56;;;;;;;23.83;19.65;;;;;;;6.76;100.00;102699.59;5248278;28;20044;-71
2021/11/24 01:07:30;;;;;;;23.50;20.38;;;;;;;6.83;100.00;102690.66;5247844;28;20467;-71
2021/11/24 01:10:04;;;;;;;25.20;21.00;;;;;;;6.81;100.00;102702.88;5246185;28;20117;-71
2021/11/24 01:12:37;;;;;;;22.20;19.80;;;;;;;6.76;100.00;102698.75;5245178;28;20099;-70
2021/11/24 01:15:09;;;;;;;22.90;20.17;;;;;;;6.81;100.00;102695.06;5247502;28;20094;-71
2021/11/24 01:17:41;;;;;;;24.13;21.60;;;;;;;6.82;100.00;102688.97;5248323;28;20686;-71
2021/11/24 01:20:13;;;;;;;26.83;22.38;;;;;;;6.81;100.00;102689.00;5248032;28;20112;-71
2021/11/24 01:22:45;;;;;;;24.75;22.05;;;;;;;6.84;100.00;102691.50;5245768;28;20036;-71
2021/11/24 01:25:16;;;;;;;29.90;23.75;;;;;;;6.88;100.00;102687.84;5248530;28;20402;-70
2021/11/24 01:27:47;;;;;;;27.63;23.48;;;;;;;6.93;100.00;102682.44;5247802;28;20098;-71
2021/11/24 01:30:19;;;;;;;26.75;22.33;;;;;;;6.97;100.00;102689.22;5247246;28;20509;-71
2021/11/24 01:32:50;;;;;;;26.58;23.58;;;;;;;6.98;100.00;102680.53;5245180;28;20476;-71
2021/11/24 01:35:22;;;;;;;28.20;23.48;;;;;;;6.99;100.00;102682.22;5247315;28;20025;-71
2021/11/24 01:37:53;;;;;;;29.13;23.70;;;;;;;7.00;100.00;102678.69;5246096;28;20021;-71
2021/11/24 01:40:25;;;;;;;25.13;21.77;;;;;;;7.05;100.00;102668.94;5250975;28;20494;-70
2021/11/24 01:42:56;;;;;;;28.58;23.33;;;;;;;7.12;100.00;102672.97;5250941;28;20548;-71
2021/11/24 01:45:27;;;;;;;23.77;21.23;;;;;;;7.18;100.00;102656.25;5248855;28;20035;-71
2021/11/24 01:47:59;;;;;;;25.25;21.58;;;;;;;7.19;100.00;102666.59;5251106;28;20103;-71
2021/11/24 01:50:31;;;;;;;22.40;20.02;;;;;;;7.13;100.00;102659.06;5251817;28;20060;-71
2021/11/24 01:53:03;;;;;;;25.98;20.63;;;;;;;7.08;100.00;102674.00;5251311;28;20320;-71
2021/11/24 01:55:34;;;;;;;21.33;19.13;;;;;;;7.07;100.00;102664.50;5248304;28;20045;-71
2021/11/24 01:58:06;;;;;;;22.55;19.63;;;;;;;7.00;100.00;102666.50;5251508;28;20782;-71
2021/11/24 02:00:37;;;;;;;21.02;18.83;;;;;;;7.01;100.00;102676.03;5250842;28;20478;-71
2021/11/24 02:03:09;;;;;;;19.50;17.55;;;;;;;7.01;100.00;102656.97;5248326;28;20507;-71
2021/11/24 02:05:40;;;;;;;20.90;18.85;;;;;;;6.91;100.00;102645.22;5249745;28;20497;-71
2021/11/24 02:08:11;;;;;;;20.92;18.20;;;;;;;6.98;100.00;102657.91;5251048;28;20074;-71
2021/11/24 02:10:43;;;;;;;20.25;18.15;;;;;;;6.99;100.00;102651.78;5251012;28;20079;-71
2021/11/24 02:13:14;;;;;;;20.27;18.27;;;;;;;6.98;100.00;102650.09;5250368;28;20021;-71
2021/11/24 02:15:46;;;;;;;19.98;18.08;;;;;;;7.01;100.00;102647.38;5250285;28;20075;-71
2021/11/24 02:18:17;;;;;;;20.17;17.30;;;;;;;7.07;100.00;102646.25;5249011;28;20029;-71
2021/11/24 02:20:48;;;;;;;19.92;17.83;;;;;;;6.99;100.00;102641.38;5251233;28;20180;-70
2021/11/24 02:23:20;;;;;;;20.00;17.85;;;;;;;7.02;100.00;102650.84;5247917;28;20037;-70
2021/11/24 02:25:51;;;;;;;19.38;17.08;;;;;;;7.01;100.00;102642.16;5250279;28;20056;-71
2021/11/24 02:28:23;;;;;;;19.90;17.75;;;;;;;7.05;100.00;102640.28;5250692;28;20033;-70
2021/11/24 02:30:54;;;;;;;20.15;18.20;;;;;;;7.05;100.00;102635.06;5245840;28;20490;-71
2021/11/24 02:33:25;;;;;;;20.08;17.90;;;;;;;7.04;100.00;102628.16;5249470;28;20750;-71
2021/11/24 02:35:57;;;;;;;21.02;18.60;;;;;;;7.05;100.00;102630.72;5250473;28;20151;-71
2021/11/24 02:38:28;;;;;;;19.70;17.52;;;;;;;7.06;100.00;102629.78;5250894;28;20033;-71
2021/11/24 02:40:59;;;;;;;20.17;18.00;;;;;;;7.08;100.00;102629.72;5248623;28;20331;-71
2021/11/24 02:43:30;;;;;;;19.45;17.50;;;;;;;7.09;100.00;102633.19;5248655;28;20470;-71
2021/11/24 02:46:02;;;;;;;21.33;18.35;;;;;;;7.09;100.00;102627.97;5250868;28;20397;-71
2021/11/24 02:48:33;;;;;;;22.25;17.73;;;;;;;7.05;100.00;102619.44;5248952;28;20028;-71
2021/11/24 02:51:05;;;;;;;19.05;16.45;;;;;;;7.09;100.00;102617.56;5249669;28;20032;-71
2021/11/24 02:53:37;;;;;;;23.25;18.17;;;;;;;7.09;100.00;102614.94;5249955;28;20041;-71
2021/11/24 02:56:08;;;;;;;20.15;18.05;;;;;;;7.07;100.00;102604.56;5249703;28;20119;-71
2021/11/24 02:58:39;;;;;;;19.63;17.40;;;;;;;7.08;100.00;102603.66;5248564;28;20040;-71
2021/11/24 03:01:11;;;;;;;19.70;17.65;;;;;;;7.04;100.00;102592.50;5247985;28;20106;-71
2021/11/24 03:03:42;;;;;;;21.80;18.25;;;;;;;7.02;100.00;102588.28;5248245;28;20028;-71
2021/11/24 03:06:13;;;;;;;19.10;17.23;;;;;;;7.01;100.00;102595.25;5246836;28;20017;-71
2021/11/24 03:08:45;;;;;;;19.88;17.75;;;;;;;7.00;100.00;102590.94;5244861;28;20042;-71
2021/11/24 03:11:16;;;;;;;17.95;16.23;;;;;;;6.97;100.00;102580.66;5248898;28;20052;-71
2021/11/24 03:13:47;;;;;;;17.08;15.52;;;;;;;6.99;100.00;102577.97;5248196;28;20029;-71
2021/11/24 03:16:18;;;;;;;18.63;16.60;;;;;;;6.94;100.00;102570.38;5247339;28;20906;-71
2021/11/24 03:18:50;;;;;;;18.02;16.33;;;;;;;6.92;100.00;102556.53;5247060;28;20510;-71
2021/11/24 03:21:21;;;;;;;18.08;16.17;;;;;;;6.90;100.00;102558.38;5248970;28;20532;-71
2021/11/24 03:23:52;;;;;;;18.30;16.52;;;;;;;6.89;100.00;102556.66;5248205;28;20363;-71
2021/11/24 03:26:24;;;;;;;19.17;17.08;;;;;;;6.89;100.00;102548.84;5249395;28;20075;-71
2021/11/24 03:28:55;;;;;;;17.80;16.00;;;;;;;6.83;100.00;102547.38;5246855;28;20041;-71
2021/11/24 03:31:28;;;;;;;20.50;17.83;;;;;;;6.82;100.00;102544.84;5248904;28;20028;-71
2021/11/24 03:33:59;;;;;;;20.67;18.63;;;;;;;6.85;100.00;102542.06;5249545;28;20224;-71
2021/11/24 03:36:30;;;;;;;21.63;17.92;;;;;;;6.78;100.00;102535.44;5247500;28;20090;-71
2021/11/24 03:39:04;;;;;;;21.45;19.23;;;;;;;6.75;100.00;102538.19;5248036;28;20033;-71
2021/11/24 03:41:35;;;;;;;;;;;;;;;7.26;100.00;102539.47;5249649;28;20017;-71
2021/11/24 03:44:06;;;;;;;19.87;17.87;;;;;;;6.75;100.00;102533.81;5246771;28;20404;-71
2021/11/24 03:46:37;;;;;;;19.17;17.27;;;;;;;6.72;100.00;102530.50;5249263;28;20337;-71
2021/11/24 03:49:09;;;;;;;19.58;17.52;;;;;;;6.71;100.00;102526.19;5249360;28;20591;-71
2021/11/24 03:51:40;;;;;;;19.02;17.13;;;;;;;6.63;100.00;102517.84;5246165;28;20067;-71
2021/11/24 03:54:11;;;;;;;20.60;18.48;;;;;;;6.66;100.00;102521.16;5246360;28;20024;-71
2021/11/24 03:56:43;;;;;;;21.33;19.27;;;;;;;6.72;100.00;102536.53;5248108;28;20056;-71
2021/11/24 03:59:14;;;;;;;19.88;17.92;;;;;;;6.72;100.00;102517.47;5248897;28;20560;-71
2021/11/24 04:01:45;;;;;;;22.48;18.35;;;;;;;6.72;100.00;102526.13;5246730;28;20025;-71
2021/11/24 04:04:17;;;;;;;22.38;20.02;;;;;;;6.75;100.00;102522.56;5248601;28;20029;-71
2021/11/24 04:06:48;;;;;;;29.45;22.35;;;;;;;6.81;100.00;102527.50;5249112;28;20399;-71
2021/11/24 04:09:20;;;;;;;27.83;22.58;;;;;;;6.85;100.00;102523.84;5248645;28;20039;-71
2021/11/24 04:11:51;;;;;;;24.90;22.23;;;;;;;6.82;100.00;102516.19;5246475;28;20033;-71
2021/11/24 04:14:22;;;;;;;24.98;21.92;;;;;;;6.88;100.00;102510.69;5247758;28;20102;-71
2021/11/24 04:16:53;;;;;;;29.25;22.35;;;;;;;6.89;100.00;102512.38;5248420;28;20309;-71
2021/11/24 04:19:25;;;;;;;30.88;25.17;;;;;;;6.94;100.00;102507.84;5249057;28;20024;-71
2021/11/24 04:21:56;;;;;;;29.10;24.65;;;;;;;6.93;100.00;102503.53;5246698;28;20025;-71
2021/11/24 04:24:28;;;;;;;29.05;24.08;;;;;;;6.95;100.00;102499.09;5247817;28;20094;-71
2021/11/24 04:27:00;;;;;;;26.80;23.95;;;;;;;6.93;100.00;102494.84;5248742;28;20037;-71
2021/11/24 04:29:32;;;;;;;30.45;24.10;;;;;;;6.97;100.00;102492.06;5243046;28;20124;-71
2021/11/24 04:32:03;;;;;;;34.15;22.20;;;;;;;6.97;100.00;102496.41;5248505;28;20016;-71
2021/11/24 04:34:35;;;;;;;39.20;23.42;;;;;;;6.94;100.00;102492.19;5247563;28;20052;-71
2021/11/24 04:37:06;;;;;;;31.20;22.77;;;;;;;6.95;100.00;102488.69;5247072;28;20594;-71
2021/11/24 04:39:37;;;;;;;36.92;22.48;;;;;;;6.96;100.00;102487.75;5248123;28;20036;-71
2021/11/24 04:42:09;;;;;;;59.53;24.30;;;;;;;6.97;100.00;102489.47;5247617;28;20382;-71
2021/11/24 04:44:41;;;;;;;29.58;23.00;;;;;;;6.97;100.00;102489.47;5247060;28;20020;-71
2021/11/24 04:47:12;;;;;;;33.38;23.05;;;;;;;6.94;100.00;102480.94;5246332;28;20114;-71
2021/11/24 04:49:43;;;;;;;33.33;24.50;;;;;;;7.00;100.00;102488.47;5247586;28;20021;-71
2021/11/24 04:52:15;;;;;;;28.50;24.88;;;;;;;7.02;100.00;102484.06;5247931;28;20088;-71
2021/11/24 04:54:46;;;;;;;36.08;25.33;;;;;;;7.04;100.00;102482.22;5245954;28;20488;-71
2021/11/24 04:57:17;;;;;;;64.10;27.48;;;;;;;7.06;100.00;102483.84;5247896;28;20021;-71
2021/11/24 04:59:48;;;;;;;52.38;27.75;;;;;;;7.06;100.00;102489.06;5247911;28;20486;-71
2021/11/24 05:02:20;;;;;;;34.22;26.63;;;;;;;7.07;100.00;102482.91;5243582;28;20108;-71
2021/11/24 05:04:51;;;;;;;60.38;28.60;;;;;;;7.10;100.00;102481.94;5246243;28;20022;-71
2021/11/24 05:07:22;;;;;;;44.95;27.40;;;;;;;7.11;100.00;102470.59;5247206;28;20651;-71
2021/11/24 05:09:53;;;;;;;62.15;28.70;;;;;;;7.12;100.00;102471.44;5246210;28;20442;-71
2021/11/24 05:12:26;;;;;;;53.00;28.55;;;;;;;7.13;100.00;102466.19;5247125;28;20425;-71
2021/11/24 05:14:58;;;;;;;32.65;27.17;;;;;;;7.13;100.00;102470.56;5250183;28;20295;-71
2021/11/24 05:17:30;;;;;;;66.05;29.67;;;;;;;7.16;100.00;102470.41;5252014;28;20086;-71
2021/11/24 05:20:04;;;;;;;42.33;29.37;;;;;;;7.16;100.00;102462.56;5246920;28;20478;-71
2021/11/24 05:22:36;;;;;;;47.78;27.73;;;;;;;7.21;100.00;102458.03;5250141;28;20278;-71
2021/11/24 05:25:07;;;;;;;49.00;29.63;;;;;;;7.20;100.00;102456.34;5251705;28;20501;-71
2021/11/24 05:27:39;;;;;;;42.05;28.77;;;;;;;7.21;100.00;102460.63;5250175;28;20028;-71
2021/11/24 05:30:10;;;;;;;88.90;32.63;;;;;;;7.22;100.00;102463.16;5250199;28;20108;-71
2021/11/24 05:32:42;;;;;;;35.92;27.85;;;;;;;7.20;100.00;102462.41;5247879;28;20483;-71
2021/11/24 05:35:13;;;;;;;34.97;28.92;;;;;;;7.24;100.00;102463.94;5249278;28;20088;-71
2021/11/24 05:37:44;;;;;;;38.72;29.90;;;;;;;7.26;100.00;102450.84;5250114;28;20024;-71
2021/11/24 05:40:16;;;;;;;37.92;30.15;;;;;;;7.26;100.00;102456.03;5251503;28;20471;-71
2021/11/24 05:42:50;;;;;;;36.33;29.65;;;;;;;7.25;100.00;102455.19;5250149;28;20029;-71
2021/11/24 05:45:39;;;;;;;55.03;33.53;;;;;;;7.24;100.00;102450.91;5250654;28;20095;-71
2021/11/24 05:48:13;;;;;;;39.60;32.28;;;;;;;7.25;100.00;102443.94;5249716;28;20029;-71
2021/11/24 05:50:47;;;;;;;36.50;30.80;;;;;;;7.25;100.00;102446.53;5248532;28;20094;-71
2021/11/24 05:53:19;;;;;;;46.53;33.17;;;;;;;7.24;100.00;102444.84;5247166;28;20068;-71
2021/11/24 05:55:51;;;;;;;41.28;34.03;;;;;;;7.31;100.00;102446.25;5249105;28;20055;-71
2021/11/24 05:58:23;;;;;;;41.88;34.42;;;;;;;7.30;100.00;102442.78;5251928;28;20467;-71
2021/11/24 06:00:55;;;;;;;42.80;33.78;;;;;;;7.30;100.00;102437.59;5249784;28;20028;-71
2021/11/24 06:03:26;;;;;;;35.20;31.48;;;;;;;7.30;100.00;102434.97;5250367;28;20017;-71
2021/11/24 06:05:57;;;;;;;38.75;32.45;;;;;;;7.31;100.00;102434.09;5251333;28;20103;-71
2021/11/24 06:08:29;;;;;;;38.08;30.88;;;;;;;7.33;100.00;102441.81;5250261;28;20057;-71
2021/11/24 06:11:00;;;;;;;36.00;31.98;;;;;;;7.35;100.00;102433.91;5249064;28;20035;-71
2021/11/24 06:13:31;;;;;;;36.85;30.92;;;;;;;7.34;100.00;102427.88;5250008;28;20040;-71
2021/11/24 06:16:03;;;;;;;37.92;31.42;;;;;;;7.37;100.00;102426.88;5250098;28;20021;-71
2021/11/24 06:18:34;;;;;;;38.35;34.13;;;;;;;7.38;100.00;102423.34;5249318;28;20123;-71
2021/11/24 06:21:05;;;;;;;36.83;31.95;;;;;;;7.36;100.00;102414.78;5250329;28;20376;-71
2021/11/24 06:23:39;;;;;;;35.72;30.70;;;;;;;7.37;100.00;102426.88;5248499;28;20017;-71
2021/11/24 06:26:10;;;;;;;35.45;31.65;;;;;;;7.34;100.00;102420.03;5247548;28;20439;-71
2021/11/24 06:28:43;;;;;;;36.75;32.75;;;;;;;7.38;100.00;102418.13;5246580;28;20117;-71
2021/11/24 06:31:15;;;;;;;35.97;32.08;;;;;;;7.37;100.00;102417.28;5249389;28;20122;-70
2021/11/24 06:33:47;;;;;;;34.90;31.23;;;;;;;7.36;100.00;102420.81;5250095;28;20033;-71
2021/11/24 06:36:23;;;;;;;35.92;31.88;;;;;;;7.36;100.00;102413.00;5249127;28;20033;-71
2021/11/24 06:38:55;;;;;;;36.60;32.65;;;;;;;7.37;100.00;102413.84;5247019;28;20504;-70
2021/11/24 06:41:26;;;;;;;36.08;32.20;;;;;;;7.36;100.00;102413.00;5250151;28;20025;-71
2021/11/24 06:43:57;;;;;;;35.63;31.80;;;;;;;7.34;100.00;102413.97;5247507;28;20454;-71
2021/11/24 06:46:29;;;;;;;36.25;31.90;;;;;;;7.34;100.00;102419.19;5246511;28;20031;-71
2021/11/24 06:49:00;;;;;;;35.40;31.60;;;;;;;7.31;100.00;102412.34;5245748;28;20028;-71
2021/11/24 06:51:31;;;;;;;38.25;31.52;;;;;;;7.33;100.00;102415.75;5244733;28;20035;-72
2021/11/24 06:54:03;;;;;;;37.33;31.33;;;;;;;7.31;100.00;102414.97;5241198;28;20036;-71
2021/11/24 06:56:34;;;;;;;36.47;31.25;;;;;;;7.29;100.00;102411.59;5239937;28;20227;-71
2021/11/24 06:59:05;;;;;;;34.42;30.73;;;;;;;7.36;100.00;102414.78;5248556;28;20029;-71
2021/11/24 07:01:37;;;;;;;35.10;31.23;;;;;;;7.35;100.00;102413.06;5247350;28;20051;-71
2021/11/24 07:04:09;;;;;;;34.28;30.58;;;;;;;7.34;100.00;102406.16;5248477;28;20118;-71
2021/11/24 07:06:40;;;;;;;34.03;30.38;;;;;;;7.34;100.00;102416.59;5248065;28;20025;-70
2021/11/24 07:09:13;;;;;;;33.85;30.20;;;;;;;7.35;100.00;102413.06;5248168;28;20093;-70
2021/11/24 07:11:45;;;;;;;34.30;30.20;;;;;;;7.38;100.00;102405.09;5248881;28;20029;-70
2021/11/24 07:14:16;;;;;;;31.90;28.45;;;;;;;7.35;100.00;102407.84;5243470;28;20509;-70
2021/11/24 07:16:47;;;;;;;33.42;29.77;;;;;;;7.36;100.00;102402.56;5247304;28;20116;-71
2021/11/24 07:19:22;;;;;;;33.15;29.55;;;;;;;7.39;100.00;102406.81;5242422;28;20025;-70
2021/11/24 07:21:53;;;;;;;34.03;30.45;;;;;;;7.39;100.00;102405.06;5243724;28;20111;-70
2021/11/24 07:24:25;;;;;;;33.63;30.00;;;;;;;7.38;100.00;102400.72;5243801;28;20029;-70
2021/11/24 07:26:56;;;;;;;32.92;29.33;;;;;;;7.38;100.00;102397.28;5244656;28;20479;-70
2021/11/24 07:29:28;;;;;;;32.65;29.25;;;;;;;7.31;100.00;102389.75;5248003;28;20422;-70
2021/11/24 07:31:59;;;;;;;33.28;29.67;;;;;;;7.40;100.00;102398.06;5254579;28;20095;-70
2021/11/24 07:34:30;;;;;;;32.83;29.40;;;;;;;7.44;100.00;102395.25;5239248;28;20458;-72
2021/11/24 07:37:02;;;;;;;33.88;30.35;;;;;;;7.41;100.00;102397.97;5232827;28;20027;-72
2021/11/24 07:39:33;;;;;;;34.33;30.73;;;;;;;7.44;100.00;102404.84;5245020;28;20029;-72
2021/11/24 07:42:05;;;;;;;33.60;30.17;;;;;;;7.46;100.00;102405.59;5241010;28;20025;-71
2021/11/24 07:44:37;;;;;;;34.28;30.58;;;;;;;7.45;100.00;102404.75;5245360;28;20021;-71
2021/11/24 07:47:08;;;;;;;35.88;32.10;;;;;;;7.47;100.00;102402.94;5245563;28;20246;-71
2021/11/24 07:49:39;;;;;;;35.47;31.85;;;;;;;7.51;100.00;102399.25;5243255;28;20035;-71
2021/11/24 07:52:11;;;;;;;35.08;31.48;;;;;;;7.48;100.00;102399.38;5239324;28;20144;-72
2021/11/24 07:54:43;;;;;;;34.63;31.15;;;;;;;7.50;100.00;102405.41;5237858;28;20421;-71
2021/11/24 07:57:14;;;;;;;34.15;30.55;;;;;;;7.49;100.00;102398.47;5248309;28;20028;-71
2021/11/24 07:59:46;;;;;;;33.80;30.20;;;;;;;7.51;100.00;102404.47;5245682;28;20351;-71
2021/11/24 08:02:17;;;;;;;34.70;30.95;;;;;;;7.56;100.00;102399.88;5246812;28;20138;-71
2021/11/24 08:04:49;;;;;;;37.08;31.48;;;;;;;7.57;100.00;102401.56;5245214;28;20024;-72
2021/11/24 08:07:20;;;;;;;33.05;29.45;;;;;;;7.58;100.00;102402.44;5247270;28;20036;-71
2021/11/24 08:09:51;;;;;;;33.35;29.85;;;;;;;7.57;100.00;102385.91;5242949;28;20035;-71
2021/11/24 08:12:22;;;;;;;32.75;29.35;;;;;;;7.62;100.00;102385.72;5243714;28;20032;-72
2021/11/24 08:14:54;;;;;;;33.50;29.98;;;;;;;7.63;100.00;102379.56;5245982;28;20475;-71
2021/11/24 08:17:25;;;;;;;33.47;29.60;;;;;;;7.64;100.00;102377.81;5245584;28;20029;-71
2021/11/24 08:19:56;;;;;;;35.03;30.90;;;;;;;7.62;100.00;102367.44;5244409;28;20119;-72
2021/11/24 08:22:29;;;;;;;33.85;29.63;;;;;;;7.66;100.00;102369.00;5243965;28;20557;-71
2021/11/24 08:25:00;;;;;;;33.50;29.75;;;;;;;7.68;100.00;102359.31;5247075;28;20168;-71
2021/11/24 08:27:31;;;;;;;33.70;29.55;;;;;;;7.68;100.00;102356.69;5246386;28;20024;-71
2021/11/24 08:30:05;;;;;;;36.28;30.90;;;;;;;7.73;100.00;102359.97;5246400;28;20111;-72
2021/11/24 08:32:37;;;;;;;41.17;33.70;;;;;;;7.70;100.00;102348.81;5246981;28;20490;-72
2021/11/24 08:35:08;;;;;;;41.35;33.00;;;;;;;7.72;100.00;102342.59;5243009;28;20079;-71
2021/11/24 08:37:40;;;;;;;46.38;36.30;;;;;;;7.74;100.00;102355.56;5246393;28;20150;-71
2021/11/24 08:40:12;;;;;;;44.80;33.47;;;;;;;7.75;100.00;102350.28;5242884;28;20537;-71
2021/11/24 08:42:43;;;;;;;44.22;33.63;;;;;;;7.77;100.00;102345.00;5243410;28;20025;-71
2021/11/24 08:45:14;;;;;;;44.95;33.38;;;;;;;7.78;100.00;102344.06;5245162;28;20448;-71
2021/11/24 08:47:47;;;;;;;43.90;33.90;;;;;;;7.77;100.00;102342.38;5244550;28;20033;-72
2021/11/24 08:50:19;;;;;;;47.92;33.65;;;;;;;7.79;100.00;102345.75;5244503;28;20212;-71
2021/11/24 08:52:50;;;;;;;46.17;33.08;;;;;;;7.79;100.00;102335.31;5243890;28;20305;-71
2021/11/24 08:55:22;;;;;;;49.53;33.97;;;;;;;7.83;100.00;102342.06;5244874;28;20027;-72
2021/11/24 08:57:54;;;;;;;47.65;34.10;;;;;;;7.84;100.00;102350.72;5242826;28;20040;-71
2021/11/24 09:00:25;;;;;;;50.65;35.92;;;;;;;7.83;100.00;102347.28;5240352;28;20029;-72
2021/11/24 09:02:57;;;;;;;50.25;34.97;;;;;;;7.83;100.00;102338.63;5247220;28;20024;-71
2021/11/24 09:05:28;;;;;;;49.67;35.67;;;;;;;7.86;100.00;102339.31;5242176;28;20117;-72
2021/11/24 09:07:59;;;;;;;51.38;35.65;;;;;;;7.82;100.00;102344.75;5244778;28;20048;-71
2021/11/24 09:10:33;;;;;;;52.55;36.20;;;;;;;7.86;100.00;102339.31;5247104;28;20033;-71
2021/11/24 09:13:05;;;;;;;48.72;34.58;;;;;;;7.84;100.00;102348.13;5244145;28;20024;-72
2021/11/24 09:15:36;;;;;;;49.08;34.50;;;;;;;7.86;100.00;102347.16;5245994;28;20033;-72
2021/11/24 09:18:08;;;;;;;51.95;35.47;;;;;;;7.87;100.00;102338.38;5247127;28;20090;-71
2021/11/24 09:20:40;;;;;;;48.90;35.63;;;;;;;7.91;100.00;102339.91;5243782;28;20033;-71
2021/11/24 09:23:13;;;;;;;50.88;35.75;;;;;;;7.90;100.00;102330.41;5245571;28;20052;-71
2021/11/24 09:25:50;;;;;;;53.10;36.13;;;;;;;7.97;100.00;102330.97;5246126;28;20405;-71
2021/11/24 09:28:24;;;;;;;46.78;34.00;;;;;;;7.95;100.00;102325.78;5242653;28;20029;-71
2021/11/24 09:30:57;;;;;;;47.92;35.40;;;;;;;8.00;100.00;102328.19;5240851;28;20029;-72
2021/11/24 09:33:29;;;;;;;46.53;34.72;;;;;;;8.03;100.00;102318.44;5245384;28;20100;-71
2021/11/24 09:36:03;;;;;;;51.13;37.50;;;;;;;8.10;100.00;102313.75;5247380;28;20028;-71
2021/11/24 09:38:34;;;;;;;45.80;34.40;;;;;;;8.05;100.00;102313.97;5241494;28;20029;-72
2021/11/24 09:41:09;;;;;;;45.20;34.65;;;;;;;8.05;100.00;102300.09;5243730;28;20033;-72
2021/11/24 09:43:47;;;;;;;42.53;31.98;;;;;;;8.23;100.00;102303.53;5244429;28;20033;-72
2021/11/24 09:46:19;;;;;;;44.75;32.65;;;;;;;8.14;100.00;102307.44;5243765;28;20052;-72
2021/11/24 09:48:51;;;;;;;44.33;32.83;;;;;;;8.15;100.00;102306.53;5241100;28;20113;-71
2021/11/24 09:51:23;;;;;;;44.13;32.75;;;;;;;8.18;100.00;102293.34;5246347;28;21068;-71
2021/11/24 09:53:55;;;;;;;40.70;30.43;;;;;;;8.22;100.00;102291.38;5244580;28;20504;-72
2021/11/24 09:56:27;;;;;;;38.33;29.20;;;;;;;8.20;100.00;102282.81;5247475;28;20021;-71
2021/11/24 09:58:58;;;;;;;40.65;29.50;;;;;;;8.26;100.00;102277.28;5245008;28;20024;-71
2021/11/24 10:01:30;;;;;;;37.70;28.63;;;;;;;8.26;100.00;102282.50;5246300;28;20055;-71
2021/11/24 10:04:01;;;;;;;38.30;28.48;;;;;;;8.26;100.00;102280.72;5249448;28;20440;-72
2021/11/24 10:06:34;;;;;;;38.20;28.75;;;;;;;8.32;100.00;102276.94;5249547;28;20293;-72
2021/11/24 10:09:09;;;;;;;39.20;30.00;;;;;;;8.28;100.00;102278.88;5249947;28;20495;-71
2021/11/24 10:11:40;;;;;;;41.28;29.83;;;;;;;8.29;100.00;102285.75;5247016;28;20032;-71
2021/11/24 10:14:12;;;;;;;37.50;28.95;;;;;;;8.35;100.00;102271.56;5245838;28;20505;-71
2021/11/24 10:16:44;;;;;;;39.20;29.15;;;;;;;8.36;100.00;102265.41;5245424;28;20676;-72
2021/11/24 10:19:15;;;;;;;40.85;30.40;;;;;;;8.35;100.00;102266.34;5246211;28;20039;-71
2021/11/24 10:22:19;;;;;;;40.40;28.50;;;;;;;8.59;100.00;102263.38;5246263;28;20029;-71
2021/11/24 10:25:07;;;;;;;39.42;27.67;;;;;;;8.50;100.00;102269.94;5244610;28;20052;-71
2021/11/24 10:27:45;;;;;;;35.92;26.38;;;;;;;8.42;100.00;102253.84;5249703;28;20108;-72
2021/11/24 10:30:29;;;;;;;37.13;26.92;;;;;;;8.50;100.00;102249.88;5249437;28;20455;-71
2021/11/24 10:33:19;;;;;;;;;;;;;;;8.89;100.00;102248.63;5247806;28;20044;-71
2021/11/24 10:36:10;;;;;;;37.60;26.40;;;;;;;8.58;100.00;102246.84;5248157;28;19921;-72
2021/11/24 10:38:43;;;;;;;37.33;25.55;;;;;;;8.52;100.00;102240.22;5248709;28;20043;-72
2021/11/24 10:41:39;;;;;;;37.75;26.25;;;;;;;8.72;100.00;102233.91;5248109;28;20537;-71
2021/11/24 10:44:10;;;;;;;36.58;24.80;;;;;;;8.59;100.00;102216.34;5246270;28;20029;-71
2021/11/24 10:46:41;;;;;;;35.30;26.15;;;;;;;8.57;100.00;102219.06;5247668;28;20566;-71
2021/11/24 10:49:13;;;;;;;36.22;26.20;;;;;;;8.52;100.00;102203.66;5248849;28;20029;-72
2021/11/24 10:51:44;;;;;;;39.15;27.70;;;;;;;8.63;100.00;102199.56;5246785;28;20028;-71
2021/11/24 10:54:18;;;;;;;35.83;26.48;;;;;;;8.69;100.00;102199.25;5247308;28;20029;-72
2021/11/24 10:57:02;;;;;;;35.25;26.27;;;;;;;8.83;100.00;102190.66;5248071;28;20074;-72
2021/11/24 10:59:39;;;;;;;37.65;27.25;;;;;;;8.77;100.00;102186.59;5249604;28;20390;-70
2021/11/24 11:02:24;;;;;;;35.42;26.27;;;;;;;8.77;100.00;102184.81;5246369;28;20029;-72
2021/11/24 11:05:01;;;;;;;36.78;26.75;;;;;;;8.80;100.00;102180.38;5249118;28;20041;-71
2021/11/24 11:07:48;;;;;;;36.50;26.67;;;;;;;8.95;100.00;102177.72;5249708;28;20029;-71
2021/11/24 11:10:30;;;;;;;37.33;26.65;;;;;;;8.90;100.00;102169.31;5247346;28;20039;-71
2021/11/24 11:13:12;;;;;;;38.07;27.43;;;;;;;8.89;100.00;102166.78;5249044;28;20032;-71
2021/11/24 11:15:52;;;;;;;37.05;25.85;;;;;;;8.85;100.00;102165.25;5247060;28;20452;-71
2021/11/24 11:18:28;;;;;;;38.72;27.02;;;;;;;8.86;100.00;102161.72;5239722;28;20333;-71
2021/11/24 11:21:02;;;;;;;39.08;27.38;;;;;;;8.87;100.00;102159.03;5242308;28;20115;-71
2021/11/24 11:23:47;;;;;;;37.05;26.95;;;;;;;9.04;100.00;102155.44;5246816;28;20048;-72
2021/11/24 11:26:24;;;;;;;39.67;26.23;;;;;;;8.93;100.00;102148.22;5247357;28;20426;-72
2021/11/24 11:28:55;;;;;;;40.88;26.40;;;;;;;8.89;100.00;102146.72;5244541;28;20087;-73
2021/11/24 11:31:28;;;;;;;40.58;27.80;;;;;;;8.92;100.00;102136.09;5248487;28;20487;-72
2021/11/24 11:34:01;;;;;;;37.40;26.83;;;;;;;8.99;100.00;102140.03;5244670;28;20032;-71